Portada
METAR-TAF:

METAR-TAF

Aeroports :

Sherbrooke, Quebec, Canadà

latitud: 45-24N, longitud: 071-53W, altitud: 170 m

Observació

L'informe es va fer fa 30 minuts, a les 23:00 UTC
Vent 5 kt del Sud-Oest
Temperatura 23°C
Humitat 27%
Pressió 1020 hPa
Visibilitat: 14.5 km
Núvols disperses a una alçada de 24000 ft

METAR: CYSC 242300Z AUTO 22005KT 9SM SCT240 23/03 A3012 RMK SLP204 DENSITY ALT 1600FT

Hora: 19:30 (23:30 UTC)

Pronòstic

L'informe es va fer fa 6 hores i 0 minuts, a les 17:30 UTC
Pronòstic vàlid del 24 a les 18 UTC al 25 a les 03 UTC
Vent 9 kt del Sud
Visibilitat: 10 km
Núvols disperses a una alçada de 24000 ft
Evolucionant progressivament
l' 24 a les 23 UTC al 25 a les 01 UTC
Vent 5 kt del Sud
Núvols disperses a una alçada de 14000 ft
Cel ennuvolat a una alçada de 24000 ft

TAF: CYSC 241730Z 2418/2503 18009KT P6SM SCT240 BECMG 2423/2501 18005KT SCT140 BKN240 RMK FCST BASED ON AUTO OBS. NXT FCST BY 250000Z

Observacions i pronòstics meteorològics de més de 4000 aeroports (METAR i TAF).

Les estacions disponibles són els punts grocs i vermells al mapa.

Posi el ratolí al punt desitjat per veure el nom de l'estació.

Feu clic per veure les observacions i els pronòstics meteorològics.

Per canviar el mapa: feu clic els botons verds amb una creu de color negre per apropar; al botó verd amb un guió per allunyar la imatge; o en les fletxes verdes per a mapes adjacents.


METAR-TAF: